createdAt,value
2022-10-05T00:01:46.213Z,96235.03
2022-10-05T00:04:17.142Z,96234.38
2022-10-05T00:06:46.427Z,96235.16
2022-10-05T00:09:17.917Z,96234.38
2022-10-05T00:11:45.716Z,96229.69
2022-10-05T00:14:19.917Z,96237.72
2022-10-05T00:16:47.630Z,96230.06
2022-10-05T00:19:22.158Z,96227.72
2022-10-05T00:21:49.260Z,96227.72
2022-10-05T00:24:20.465Z,96234.75
2022-10-05T00:26:47.948Z,96231.88
2022-10-05T00:29:22.139Z,96228.28
2022-10-05T00:31:50.676Z,96232.19
2022-10-05T00:34:18.458Z,96230.06
2022-10-05T00:36:46.339Z,96235.13
2022-10-05T00:39:13.998Z,96229.47
2022-10-05T00:42:00.094Z,96229.91
2022-10-05T00:44:43.581Z,96221.38
2022-10-05T00:47:35.563Z,96225.47
2022-10-05T00:50:23.139Z,96223.13
2022-10-05T00:53:01.099Z,96224.59
2022-10-05T00:55:41.079Z,96225.16
2022-10-05T00:58:22.379Z,96229.28
2022-10-05T01:01:00.068Z,96230.97
2022-10-05T01:03:39.499Z,96224.59
2022-10-05T01:06:18.519Z,96232.50
2022-10-05T01:08:58.260Z,96230.31
2022-10-05T01:11:36.585Z,96231.06
2022-10-05T01:14:17.340Z,96228.63
2022-10-05T01:16:53.218Z,96224.75
2022-10-05T01:19:41.978Z,96219.00
2022-10-05T01:22:19.641Z,96221.50
2022-10-05T01:25:07.941Z,96214.00
2022-10-05T01:27:51.038Z,96219.75
2022-10-05T01:30:21.423Z,96217.09
2022-10-05T01:32:59.338Z,96220.47
2022-10-05T01:35:43.219Z,96217.69
2022-10-05T01:38:24.841Z,96214.69
2022-10-05T01:41:04.800Z,96214.81
2022-10-05T01:43:44.638Z,96216.28
2022-10-05T01:46:25.279Z,96221.50
2022-10-05T01:49:14.673Z,96216.81
2022-10-05T01:51:55.768Z,96210.03
2022-10-05T01:54:37.678Z,96218.13
2022-10-05T01:57:15.539Z,96210.19
2022-10-05T02:00:01.541Z,96211.66
2022-10-05T02:02:34.836Z,96207.28
2022-10-05T02:05:08.328Z,96205.16
2022-10-05T02:07:44.618Z,96205.31
2022-10-05T02:10:24.159Z,96204.78
2022-10-05T02:12:58.818Z,96201.31
2022-10-05T02:15:37.453Z,96206.09
2022-10-05T02:18:12.578Z,96207.91
2022-10-05T02:20:43.560Z,96208.16
2022-10-05T02:23:17.957Z,96216.81
2022-10-05T02:25:49.840Z,96213.44
2022-10-05T02:28:25.369Z,96211.03
2022-10-05T02:31:00.782Z,96202.75
2022-10-05T02:33:30.217Z,96208.63
2022-10-05T02:36:01.079Z,96205.06
2022-10-05T02:38:40.159Z,96201.69
2022-10-05T02:41:17.577Z,96207.56
2022-10-05T02:43:53.741Z,96206.41
2022-10-05T02:46:34.455Z,96199.03
2022-10-05T02:49:15.522Z,96202.28
2022-10-05T02:51:55.559Z,96206.19
2022-10-05T02:54:40.298Z,96201.59
2022-10-05T02:57:16.897Z,96208.16
2022-10-05T02:59:54.045Z,96207.25
2022-10-05T03:02:29.524Z,96201.25
2022-10-05T03:05:09.761Z,96208.06
2022-10-05T03:07:47.897Z,96210.34
2022-10-05T03:10:26.939Z,96203.53
2022-10-05T03:13:02.338Z,96201.13
2022-10-05T03:16:09.726Z,96199.97
2022-10-05T03:18:53.839Z,96194.66
2022-10-05T03:21:38.862Z,96197.41
2022-10-05T03:24:25.120Z,96201.56
2022-10-05T03:27:02.801Z,96192.69
2022-10-05T03:29:40.719Z,96195.00
2022-10-05T03:32:24.004Z,96199.88
2022-10-05T03:35:01.899Z,96186.75
2022-10-05T03:37:39.811Z,96195.16
2022-10-05T03:40:20.539Z,96200.91
2022-10-05T03:43:06.161Z,96194.47
2022-10-05T03:45:44.620Z,96193.28
2022-10-05T03:48:18.720Z,96192.38
2022-10-05T03:51:01.439Z,96193.19
2022-10-05T03:53:37.838Z,96190.75
2022-10-05T03:56:12.239Z,96191.53
2022-10-05T03:58:45.358Z,96195.44
2022-10-05T04:01:19.412Z,96199.72
2022-10-05T04:03:52.059Z,96194.50
2022-10-05T04:06:26.698Z,96195.69
2022-10-05T04:09:00.579Z,96202.00
2022-10-05T04:11:33.620Z,96204.06
2022-10-05T04:14:07.341Z,96204.19
2022-10-05T04:16:41.359Z,96201.28
2022-10-05T04:19:18.380Z,96210.28
2022-10-05T04:21:52.005Z,96207.84
2022-10-05T04:24:28.858Z,96201.28
2022-10-05T04:27:03.818Z,96206.81
2022-10-05T04:29:38.298Z,96197.41
2022-10-05T04:32:28.640Z,96202.94
2022-10-05T04:35:44.980Z,96204.41
2022-10-05T04:38:37.700Z,96203.25
2022-10-05T04:41:25.641Z,96204.03
2022-10-05T04:44:13.164Z,96198.97
2022-10-05T04:47:00.191Z,96199.91
2022-10-05T04:49:54.158Z,96202.84
2022-10-05T04:52:30.822Z,96199.91
2022-10-05T04:55:12.539Z,96201.06
2022-10-05T04:57:49.738Z,96199.91
2022-10-05T05:00:31.784Z,96205.09
2022-10-05T05:03:32.183Z,96204.41
2022-10-05T05:06:18.725Z,96207.06
2022-10-05T05:09:05.422Z,96204.03
2022-10-05T05:11:52.459Z,96216.69
2022-10-05T05:14:49.140Z,96221.66
2022-10-05T05:17:36.286Z,96212.00
2022-10-05T05:20:19.280Z,96217.56
2022-10-05T05:22:54.370Z,96209.28
2022-10-05T05:25:38.798Z,96211.78
2022-10-05T05:28:23.399Z,96213.34
2022-10-05T05:31:00.946Z,96211.53
2022-10-05T05:33:42.481Z,96217.25
2022-10-05T05:36:45.132Z,96216.91
2022-10-05T05:39:24.160Z,96221.06
2022-10-05T05:42:00.391Z,96230.34
2022-10-05T05:44:38.722Z,96227.31
2022-10-05T05:47:19.728Z,96233.06
2022-10-05T05:50:07.402Z,96233.44
2022-10-05T05:52:43.101Z,96234.91
2022-10-05T05:55:21.262Z,96232.75
2022-10-05T05:57:56.498Z,96239.88
2022-10-05T06:00:34.685Z,96240.44
2022-10-05T06:03:11.689Z,96243.53
2022-10-05T06:05:44.861Z,96242.50
2022-10-05T06:08:22.622Z,96237.19
2022-10-05T06:10:55.900Z,96238.09
2022-10-05T06:13:29.199Z,96241.63
2022-10-05T06:16:05.385Z,96243.13
2022-10-05T06:18:34.459Z,96230.03
2022-10-05T06:21:11.339Z,96230.63
2022-10-05T06:23:47.689Z,96226.16
2022-10-05T06:26:36.881Z,96233.00
2022-10-05T06:29:11.502Z,96232.97
2022-10-05T06:32:05.054Z,96235.09
2022-10-05T06:34:53.579Z,96235.81
2022-10-05T06:37:33.198Z,96244.09
2022-10-05T06:40:16.421Z,96237.00
2022-10-05T06:43:09.179Z,96238.47
2022-10-05T06:45:51.721Z,96229.72
2022-10-05T06:48:35.379Z,96236.09
2022-10-05T06:51:15.579Z,96237.47
2022-10-05T06:53:54.502Z,96245.31
2022-10-05T06:56:31.798Z,96237.19
2022-10-05T06:59:09.800Z,96240.16
2022-10-05T07:01:52.256Z,96244.16
2022-10-05T07:04:42.838Z,96242.19
2022-10-05T07:07:21.519Z,96243.91
2022-10-05T07:10:03.445Z,96247.09
2022-10-05T07:12:58.959Z,96245.00
2022-10-05T07:15:41.238Z,96241.97
2022-10-05T07:18:31.779Z,96245.09
2022-10-05T07:21:14.758Z,96244.97
2022-10-05T07:24:01.400Z,96250.69
2022-10-05T07:26:37.439Z,96243.69
2022-10-05T07:29:29.681Z,96249.44
2022-10-05T07:32:08.842Z,96243.59
2022-10-05T07:34:50.439Z,96243.16
2022-10-05T07:37:29.699Z,96244.03
2022-10-05T07:40:10.719Z,96250.44
2022-10-05T07:42:55.178Z,96252.78
2022-10-05T07:45:29.638Z,96254.22
2022-10-05T07:48:01.980Z,96262.38
2022-10-05T07:50:37.536Z,96260.81
2022-10-05T07:53:15.561Z,96261.69
2022-10-05T07:55:51.962Z,96260.03
2022-10-05T07:58:26.486Z,96258.59
2022-10-05T08:01:10.162Z,96258.56
2022-10-05T08:03:48.866Z,96252.56
2022-10-05T08:06:43.002Z,96252.06
2022-10-05T08:09:28.320Z,96255.69
2022-10-05T08:12:07.579Z,96253.06
2022-10-05T08:14:46.557Z,96244.78
2022-10-05T08:17:26.539Z,96253.09
2022-10-05T08:20:06.579Z,96250.44
2022-10-05T08:22:46.138Z,96252.03
2022-10-05T08:25:24.721Z,96258.94
2022-10-05T08:28:00.189Z,96260.38
2022-10-05T08:30:34.219Z,96247.78
2022-10-05T08:33:10.620Z,96250.00
2022-10-05T08:35:42.178Z,96251.97
2022-10-05T08:38:14.786Z,96258.50
2022-10-05T08:41:11.938Z,96256.59
2022-10-05T08:44:07.060Z,96259.50
2022-10-05T08:47:07.102Z,96253.69
2022-10-05T08:50:06.781Z,96262.28
2022-10-05T08:52:56.701Z,96265.44
2022-10-05T08:55:46.282Z,96260.13
2022-10-05T08:58:51.380Z,96268.22
2022-10-05T09:01:31.845Z,96262.28
2022-10-05T09:04:23.341Z,96266.34
2022-10-05T09:07:15.520Z,96271.69
2022-10-05T09:10:25.121Z,96281.59
2022-10-05T09:13:23.981Z,96277.25
2022-10-05T09:16:19.553Z,96274.88
2022-10-05T09:19:26.681Z,96272.53
2022-10-05T09:22:06.100Z,96279.16
2022-10-05T09:24:56.303Z,96272.97
2022-10-05T09:27:37.000Z,96279.44
2022-10-05T09:30:37.683Z,96275.19
2022-10-05T09:33:37.441Z,96267.66
2022-10-05T09:36:47.275Z,96267.97
2022-10-05T09:39:43.821Z,96264.75
2022-10-05T09:42:49.941Z,96272.25
2022-10-05T09:45:37.641Z,96268.25
2022-10-05T09:48:40.262Z,96264.50
2022-10-05T09:51:44.720Z,96260.19
2022-10-05T09:54:59.864Z,96255.34
2022-10-05T09:57:53.348Z,96251.63
2022-10-05T10:00:36.202Z,96251.94
2022-10-05T10:03:47.123Z,96259.66
2022-10-05T10:06:34.942Z,96255.59
2022-10-05T10:09:28.422Z,96251.91
2022-10-05T10:12:25.447Z,96246.00
2022-10-05T10:15:40.014Z,96246.22
2022-10-05T10:18:45.281Z,96245.19
2022-10-05T10:21:51.921Z,96244.69
2022-10-05T10:24:43.056Z,96258.28
2022-10-05T10:27:46.274Z,96255.13
2022-10-05T10:30:53.426Z,96250.53
2022-10-05T10:33:54.761Z,96247.00
2022-10-05T10:36:46.352Z,96244.03
2022-10-05T10:39:30.566Z,96246.97
2022-10-05T10:42:26.253Z,96246.41
2022-10-05T10:45:12.829Z,96244.06
2022-10-05T10:47:55.421Z,96243.53
2022-10-05T10:50:53.010Z,96245.38
2022-10-05T10:54:02.687Z,96243.28
2022-10-05T10:56:48.288Z,96247.81
2022-10-05T10:59:51.341Z,96243.75
2022-10-05T11:02:48.976Z,96239.75
2022-10-05T11:05:36.231Z,96242.78
2022-10-05T11:08:31.690Z,96249.22
2022-10-05T11:11:33.689Z,96239.84
2022-10-05T11:14:34.249Z,96234.94
2022-10-05T11:17:25.789Z,96247.84
2022-10-05T11:20:25.668Z,96232.53
2022-10-05T11:23:03.349Z,96228.78
2022-10-05T11:26:04.490Z,96230.47
2022-10-05T11:29:11.430Z,96227.53
2022-10-05T11:32:14.809Z,96230.94
2022-10-05T11:35:12.989Z,96225.84
2022-10-05T11:38:03.769Z,96227.13
2022-10-05T11:41:10.732Z,96214.00
2022-10-05T11:44:12.749Z,96219.09
2022-10-05T11:46:51.654Z,96212.91
2022-10-05T11:49:40.511Z,96207.78
2022-10-05T11:52:18.470Z,96211.81
2022-10-05T11:55:17.391Z,96198.47
2022-10-05T11:57:52.869Z,96209.88
2022-10-05T12:00:22.790Z,96198.03
2022-10-05T12:03:12.163Z,96201.13
2022-10-05T12:05:56.913Z,96193.69
2022-10-05T12:08:37.809Z,96198.03
2022-10-05T12:11:26.371Z,96194.81
2022-10-05T12:14:01.989Z,96192.44
2022-10-05T12:16:40.048Z,96184.97
2022-10-05T12:19:17.510Z,96180.09
2022-10-05T12:21:56.089Z,96182.19
2022-10-05T12:24:46.309Z,96179.75
2022-10-05T12:27:18.869Z,96180.78
2022-10-05T12:29:56.531Z,96177.09
2022-10-05T12:32:31.510Z,96170.66
2022-10-05T12:35:08.310Z,96167.66
2022-10-05T12:37:47.932Z,96169.00
2022-10-05T12:40:27.653Z,96160.22
2022-10-05T12:43:14.150Z,96164.50
2022-10-05T12:45:59.846Z,96166.63
2022-10-05T12:48:53.889Z,96163.53
2022-10-05T12:51:32.569Z,96160.84
2022-10-05T12:54:12.118Z,96149.53
2022-10-05T12:56:52.350Z,96165.06
2022-10-05T12:59:35.968Z,96164.50
2022-10-05T13:02:19.152Z,96164.06
2022-10-05T13:04:57.270Z,96163.50
2022-10-05T13:07:56.570Z,96168.56
2022-10-05T13:10:37.730Z,96160.56
2022-10-05T13:13:27.629Z,96158.50
2022-10-05T13:16:09.187Z,96164.88
2022-10-05T13:18:51.871Z,96172.34
2022-10-05T13:21:27.219Z,96160.63
2022-10-05T13:24:05.270Z,96153.88
2022-10-05T13:26:37.615Z,96159.50
2022-10-05T13:29:19.758Z,96162.72
2022-10-05T13:31:51.560Z,96153.91
2022-10-05T13:34:30.171Z,96160.03
2022-10-05T13:37:07.795Z,96164.31
2022-10-05T13:39:59.180Z,96159.56
2022-10-05T13:42:37.853Z,96154.13
2022-10-05T13:45:17.275Z,96158.69
2022-10-05T13:48:02.076Z,96156.34
2022-10-05T13:50:33.699Z,96153.06
2022-10-05T13:53:13.930Z,96152.81
2022-10-05T13:55:47.734Z,96151.75
2022-10-05T13:58:25.051Z,96152.00
2022-10-05T14:00:57.976Z,96153.63
2022-10-05T14:03:29.698Z,96158.41
2022-10-05T14:05:58.873Z,96164.09
2022-10-05T14:08:29.954Z,96155.75
2022-10-05T14:10:57.178Z,96146.41
2022-10-05T14:13:27.505Z,96155.22
2022-10-05T14:16:02.808Z,96144.25
2022-10-05T14:18:32.271Z,96153.88
2022-10-05T14:21:16.829Z,96143.72
2022-10-05T14:23:44.561Z,96150.66
2022-10-05T14:26:20.527Z,96150.91
2022-10-05T14:29:00.573Z,96145.84
2022-10-05T14:31:33.287Z,96141.56
2022-10-05T14:34:32.717Z,96137.06
2022-10-05T14:37:04.513Z,96143.72
2022-10-05T14:39:35.156Z,96139.97
2022-10-05T14:42:18.596Z,96145.63
2022-10-05T14:44:46.576Z,96144.00
2022-10-05T14:47:22.868Z,96146.94
2022-10-05T14:49:53.535Z,96139.69
2022-10-05T14:52:31.315Z,96135.94
2022-10-05T14:55:07.277Z,96135.94
2022-10-05T14:57:47.217Z,96141.03
2022-10-05T15:00:16.952Z,96143.72
2022-10-05T15:03:09.649Z,96137.06
2022-10-05T15:05:45.092Z,96143.97
2022-10-05T15:08:33.430Z,96135.94
2022-10-05T15:11:06.471Z,96141.31
2022-10-05T15:13:39.032Z,96144.56
2022-10-05T15:16:18.651Z,96141.59
2022-10-05T15:18:57.331Z,96140.00
2022-10-05T15:21:39.236Z,96140.00
2022-10-05T15:24:12.429Z,96143.47
2022-10-05T15:26:49.531Z,96145.88
2022-10-05T15:29:42.950Z,96137.56
2022-10-05T15:32:33.930Z,96143.19
2022-10-05T15:35:37.670Z,96155.28
2022-10-05T15:38:19.869Z,96152.59
2022-10-05T15:40:55.750Z,96160.38
2022-10-05T15:43:23.931Z,96153.66
2022-10-05T15:46:03.871Z,96154.22
2022-10-05T15:48:45.755Z,96163.56
2022-10-05T15:51:30.268Z,96154.44
2022-10-05T15:54:06.904Z,96153.63
2022-10-05T15:56:41.072Z,96153.63
2022-10-05T15:59:24.192Z,96152.56
2022-10-05T16:01:58.527Z,96153.88
2022-10-05T16:04:39.794Z,96149.88
2022-10-05T16:07:18.995Z,96157.38
2022-10-05T16:10:00.591Z,96168.06
2022-10-05T16:12:42.951Z,96162.16
2022-10-05T16:15:21.794Z,96163.50
2022-10-05T16:18:07.174Z,96171.78
2022-10-05T16:20:48.533Z,96167.22
2022-10-05T16:23:27.375Z,96164.25
2022-10-05T16:26:10.671Z,96170.13
2022-10-05T16:28:53.739Z,96176.78
2022-10-05T16:31:31.105Z,96175.97
2022-10-05T16:34:14.892Z,96171.97
2022-10-05T16:36:55.532Z,96183.69
2022-10-05T16:39:49.690Z,96186.38
2022-10-05T16:42:35.051Z,96182.88
2022-10-05T16:45:20.853Z,96190.06
2022-10-05T16:47:59.396Z,96192.19
2022-10-05T16:50:35.456Z,96199.69
2022-10-05T16:53:12.182Z,96192.44
2022-10-05T16:55:47.612Z,96195.91
2022-10-05T16:58:23.895Z,96199.91
2022-10-05T17:01:08.592Z,96198.53
2022-10-05T17:03:58.233Z,96206.25
2022-10-05T17:07:03.555Z,96206.78
2022-10-05T17:10:09.078Z,96216.41
2022-10-05T17:12:53.192Z,96211.34
2022-10-05T17:15:36.526Z,96221.19
2022-10-05T17:18:25.155Z,96224.31
2022-10-05T17:21:01.892Z,96216.28
2022-10-05T17:23:37.415Z,96230.81
2022-10-05T17:26:39.952Z,96236.56
2022-10-05T17:29:25.334Z,96245.03
2022-10-05T17:32:09.631Z,96249.56
2022-10-05T17:34:38.810Z,96245.91
2022-10-05T17:37:19.053Z,96251.53
2022-10-05T17:39:50.346Z,96259.66
2022-10-05T17:42:46.457Z,96256.88
2022-10-05T17:45:56.278Z,96266.91
2022-10-05T17:48:59.573Z,96271.06
2022-10-05T17:52:02.530Z,96262.66
2022-10-05T17:54:32.265Z,96267.16
2022-10-05T17:57:23.939Z,96274.00
2022-10-05T18:00:00.353Z,96272.03
2022-10-05T18:02:43.120Z,96272.16
2022-10-05T18:05:22.949Z,96282.25
2022-10-05T18:08:31.833Z,96279.75
2022-10-05T18:11:33.364Z,96293.78
2022-10-05T18:14:19.209Z,96300.13
2022-10-05T18:17:01.067Z,96304.28
2022-10-05T18:19:31.810Z,96308.41
2022-10-05T18:22:27.091Z,96316.81
2022-10-05T18:25:02.437Z,96318.06
2022-10-05T18:28:00.977Z,96340.44
2022-10-05T18:30:40.953Z,96335.09
2022-10-05T18:33:37.369Z,96335.72
2022-10-05T18:36:22.394Z,96337.81
2022-10-05T18:39:03.308Z,96333.00
2022-10-05T18:41:51.526Z,96341.47
2022-10-05T18:44:35.740Z,96349.97
2022-10-05T18:47:12.942Z,96359.41
2022-10-05T18:50:07.264Z,96368.53
2022-10-05T18:52:55.182Z,96371.13
2022-10-05T18:55:33.001Z,96373.16
2022-10-05T18:58:17.122Z,96378.66
2022-10-05T19:01:14.499Z,96381.94
2022-10-05T19:03:59.477Z,96381.94
2022-10-05T19:06:31.616Z,96399.03
2022-10-05T19:09:18.330Z,96396.03
2022-10-05T19:11:59.689Z,96408.38
2022-10-05T19:14:37.750Z,96406.56
2022-10-05T19:17:23.269Z,96411.28
2022-10-05T19:20:17.146Z,96415.00
2022-10-05T19:23:07.971Z,96413.69
2022-10-05T19:25:46.469Z,96418.63
2022-10-05T19:28:29.018Z,96419.25
2022-10-05T19:31:24.986Z,96420.72
2022-10-05T19:34:11.945Z,96422.72
2022-10-05T19:36:53.464Z,96423.84
2022-10-05T19:39:33.326Z,96426.75
2022-10-05T19:42:24.227Z,96424.91
2022-10-05T19:45:10.047Z,96432.97
2022-10-05T19:47:52.288Z,96434.59
2022-10-05T19:50:27.525Z,96433.53
2022-10-05T19:53:02.184Z,96444.69
2022-10-05T19:55:36.025Z,96447.81
2022-10-05T19:58:19.424Z,96454.00
2022-10-05T20:00:58.865Z,96452.66
2022-10-05T20:03:28.284Z,96460.47
2022-10-05T20:05:57.758Z,96460.66
2022-10-05T20:08:27.381Z,96460.66
2022-10-05T20:11:06.888Z,96464.66
2022-10-05T20:13:36.584Z,96460.41
2022-10-05T20:16:09.900Z,96469.09
2022-10-05T20:18:39.605Z,96467.13
2022-10-05T20:21:06.964Z,96469.59
2022-10-05T20:23:34.043Z,96473.03
2022-10-05T20:26:01.204Z,96478.03
2022-10-05T20:28:32.211Z,96483.31
2022-10-05T20:31:01.350Z,96484.78
2022-10-05T20:33:29.786Z,96490.25
2022-10-05T20:35:57.007Z,96494.19
2022-10-05T20:38:24.380Z,96495.00
2022-10-05T20:40:51.667Z,96500.00
2022-10-05T20:43:18.873Z,96501.03
2022-10-05T20:45:46.017Z,96501.97
2022-10-05T20:48:15.318Z,96512.28
2022-10-05T20:50:42.436Z,96518.41
2022-10-05T20:53:11.865Z,96523.03
2022-10-05T20:55:39.359Z,96529.97
2022-10-05T20:58:06.577Z,96531.81
2022-10-05T21:00:34.122Z,96536.91
2022-10-05T21:03:01.423Z,96532.41
2022-10-05T21:05:30.999Z,96545.38
2022-10-05T21:07:58.173Z,96544.31
2022-10-05T21:10:25.460Z,96558.09
2022-10-05T21:12:52.563Z,96550.56
2022-10-05T21:15:19.733Z,96559.59
2022-10-05T21:17:46.971Z,96570.25
2022-10-05T21:20:14.192Z,96569.97
2022-10-05T21:22:42.754Z,96568.25
2022-10-05T21:25:10.052Z,96564.19
2022-10-05T21:27:37.212Z,96565.38
2022-10-05T21:30:04.934Z,96567.56
2022-10-05T21:32:32.062Z,96567.56
2022-10-05T21:34:59.794Z,96566.41
2022-10-05T21:37:26.971Z,96568.13
2022-10-05T21:39:55.391Z,96564.91
2022-10-05T21:42:23.565Z,96566.19
2022-10-05T21:44:50.912Z,96565.03
2022-10-05T21:47:17.972Z,96571.25
2022-10-05T21:49:45.113Z,96571.13
2022-10-05T21:52:13.245Z,96570.44
2022-10-05T21:54:40.468Z,96570.06
2022-10-05T21:57:12.985Z,96569.44
2022-10-05T21:59:40.885Z,96571.09
2022-10-05T22:02:07.932Z,96559.44
2022-10-05T22:04:35.026Z,96574.59
2022-10-05T22:07:06.270Z,96572.56
2022-10-05T22:09:33.469Z,96575.31
2022-10-05T22:12:00.685Z,96573.13
2022-10-05T22:14:29.226Z,96576.38
2022-10-05T22:16:56.348Z,96585.50
2022-10-05T22:19:23.727Z,96584.22
2022-10-05T22:21:50.806Z,96587.09
2022-10-05T22:24:18.265Z,96592.75
2022-10-05T22:26:49.287Z,96583.78
2022-10-05T22:29:17.406Z,96584.16
2022-10-05T22:31:47.396Z,96582.31
2022-10-05T22:34:14.605Z,96588.78
2022-10-05T22:36:41.704Z,96586.56
2022-10-05T22:39:09.078Z,96593.53
2022-10-05T22:41:36.189Z,96592.25
2022-10-05T22:44:03.327Z,96585.31
2022-10-05T22:46:30.724Z,96588.78
2022-10-05T22:48:59.284Z,96588.22
2022-10-05T22:51:26.445Z,96589.47
2022-10-05T22:53:53.646Z,96596.41
2022-10-05T22:56:20.787Z,96598.59
2022-10-05T22:58:47.924Z,96602.75
2022-10-05T23:01:17.930Z,96602.50
2022-10-05T23:03:45.846Z,96597.88
2022-10-05T23:06:16.366Z,96600.72
2022-10-05T23:08:44.804Z,96598.97
2022-10-05T23:11:14.478Z,96599.47
2022-10-05T23:13:42.168Z,96603.00
2022-10-05T23:16:11.916Z,96606.13
2022-10-05T23:18:40.027Z,96615.59
2022-10-05T23:21:09.667Z,96611.53
2022-10-05T23:23:40.373Z,96612.56
2022-10-05T23:26:10.164Z,96611.97
2022-10-05T23:28:39.685Z,96621.66
2022-10-05T23:31:08.816Z,96621.22
2022-10-05T23:33:36.066Z,96618.19
2022-10-05T23:36:06.365Z,96620.25
2022-10-05T23:38:34.746Z,96626.84
2022-10-05T23:41:04.525Z,96629.03
2022-10-05T23:43:32.644Z,96629.03
2022-10-05T23:46:00.737Z,96625.56
2022-10-05T23:48:28.515Z,96633.31
2022-10-05T23:50:56.189Z,96635.75
2022-10-05T23:53:23.970Z,96646.59
2022-10-05T23:55:51.606Z,96647.69
2022-10-05T23:58:20.845Z,96648.19
